Oneida, Tennessee
Current Conditions -  °F | °C
As of 4:31 PM on Sunday 23 Nov 2014 (Local Time) from KEKQ Reporting Station
Haze Haze  
Wind Chill: 57°   Ceiling: 4400
Heat Index: 57°   Visibility: 4mi
Dew Point: 54°   Wind: 15mph
Humidity: 88%   Direction: 130°SE
Pressure: 29.58"   Gusts: 21mph
Location:  36.5°N, 84.51°W
Report Text: KEKQ 232131Z AUTO 13013G18KT 4SM BR SCT029 BKN044 OVC075 14/12 A2958 RMK AO2 OVC V BKN P0004 PRESFR
Loading
Personal Weather Stations






























Interactive Weather Map New forecast layout! Learn more

10-Day Weather Forecast

Advertisements
Track Severe Weather on mobile